createdAt,value
2018-02-25T00:09:11.372Z,83.03
2018-02-25T00:19:11.332Z,83.65
2018-02-25T00:29:11.407Z,83.84
2018-02-25T00:39:11.358Z,85.06
2018-02-25T00:49:11.440Z,84.97
2018-02-25T00:59:11.400Z,85.35
2018-02-25T01:09:11.396Z,85.06
2018-02-25T01:19:11.418Z,85.72
2018-02-25T01:29:11.477Z,85.53
2018-02-25T01:39:11.446Z,85.91
2018-02-25T01:49:11.392Z,85.82
2018-02-25T01:59:11.478Z,86.67
2018-02-25T02:09:11.450Z,86.01
2018-02-25T02:19:11.462Z,86.95
2018-02-25T02:29:11.449Z,86.86
2018-02-25T02:39:11.509Z,86.95
2018-02-25T02:49:11.470Z,87.76
2018-02-25T02:59:11.439Z,87.95
2018-02-25T03:09:11.488Z,88.98
2018-02-25T03:19:11.435Z,89.55
2018-02-25T03:29:11.499Z,92.47
2018-02-25T03:39:11.469Z,95.68
2018-02-25T03:49:11.717Z,98.52
2018-02-25T03:59:11.519Z,99.93
2018-02-25T04:09:11.477Z,99.99
2018-02-25T04:19:11.524Z,99.99
2018-02-25T04:29:11.463Z,99.99
2018-02-25T04:39:11.553Z,99.99
2018-02-25T04:49:11.497Z,99.99
2018-02-25T04:59:11.578Z,99.99
2018-02-25T05:09:11.560Z,99.99
2018-02-25T05:19:11.588Z,99.99
2018-02-25T05:29:11.581Z,99.99
2018-02-25T05:39:11.499Z,99.99
2018-02-25T05:49:11.573Z,99.99
2018-02-25T05:59:11.501Z,99.99
2018-02-25T06:09:11.594Z,99.99
2018-02-25T06:19:11.571Z,99.99
2018-02-25T06:29:11.623Z,99.99
2018-02-25T06:39:11.597Z,99.99
2018-02-25T06:49:11.642Z,99.99
2018-02-25T06:59:11.614Z,99.99
2018-02-25T07:09:11.860Z,99.99
2018-02-25T07:19:11.650Z,99.99
2018-02-25T07:29:11.595Z,99.99
2018-02-25T07:39:11.656Z,99.99
2018-02-25T07:49:11.621Z,99.99
2018-02-25T07:59:11.681Z,99.99
2018-02-25T08:09:11.662Z,99.99
2018-02-25T08:19:11.786Z,99.99
2018-02-25T08:29:11.693Z,99.99
2018-02-25T08:39:11.635Z,98.28
2018-02-25T08:49:11.671Z,96.49
2018-02-25T08:59:11.640Z,92.52
2018-02-25T09:09:11.711Z,87.62
2018-02-25T09:19:11.717Z,84.22
2018-02-25T09:29:12.674Z,80.72
2018-02-25T09:39:11.714Z,80.95
2018-02-25T09:49:11.762Z,81.14
2018-02-25T09:59:11.751Z,79.91
2018-02-25T10:09:11.727Z,77.08
2018-02-25T10:19:11.725Z,74.34
2018-02-25T10:29:11.712Z,74.53
2018-02-25T10:39:11.773Z,72.3
2018-02-25T10:49:11.722Z,72.3
2018-02-25T10:59:11.815Z,70.59
2018-02-25T11:09:11.741Z,67.1
2018-02-25T11:19:11.839Z,68.36
2018-02-25T11:29:11.893Z,69.31
2018-02-25T11:39:11.823Z,66.56
2018-02-25T11:49:11.801Z,67.89
2018-02-25T11:59:11.805Z,67.98
2018-02-25T12:09:11.858Z,66.66
2018-02-25T12:19:11.807Z,66.75
2018-02-25T12:29:11.879Z,66.28
2018-02-25T12:39:11.818Z,66.56
2018-02-25T12:49:11.878Z,64.04
2018-02-25T12:59:11.823Z,68.65
2018-02-25T13:09:11.893Z,65.18
2018-02-25T13:19:11.889Z,65.43
2018-02-25T13:29:11.800Z,63.92
2018-02-25T13:39:11.893Z,63.45
2018-02-25T13:49:11.823Z,64.14
2018-02-25T13:59:11.910Z,67.89
2018-02-25T14:09:11.883Z,66.56
2018-02-25T14:19:11.939Z,66.66
2018-02-25T14:29:11.951Z,64.11
2018-02-25T14:39:11.949Z,65.34
2018-02-25T14:49:11.931Z,65.34
2018-02-25T15:09:14.681Z,66.56
2018-02-25T15:19:13.172Z,65.91
2018-02-25T15:29:11.970Z,65.72
2018-02-25T15:39:12.999Z,65.84
2018-02-25T15:49:12.002Z,69.97
2018-02-25T15:59:12.131Z,73.66
2018-02-25T16:09:12.053Z,70.35
2018-02-25T16:19:11.956Z,73.81
2018-02-25T16:29:12.059Z,77.31
2018-02-25T16:39:12.002Z,78.91
2018-02-25T16:49:12.707Z,78.72
2018-02-25T16:59:12.042Z,79.38
2018-02-25T17:09:12.031Z,80.38
2018-02-25T17:19:12.048Z,82.69
2018-02-25T17:29:11.999Z,83.45
2018-02-25T17:39:12.089Z,85.11
2018-02-25T17:49:12.042Z,86.9
2018-02-25T17:59:12.085Z,89.54
2018-02-25T18:09:12.060Z,92.94
2018-02-25T18:19:14.137Z,95.12
2018-02-25T18:29:13.928Z,96.91
2018-02-25T18:39:14.296Z,98.28
2018-02-25T18:49:14.519Z,99.99
2018-02-25T18:59:14.075Z,99.99
2018-02-25T19:09:37.642Z,99.99
2018-02-25T19:19:35.086Z,99.99
2018-02-25T19:29:12.792Z,99.99
2018-02-25T19:39:12.122Z,99.99
2018-02-25T19:49:12.220Z,99.99
2018-02-25T19:59:12.142Z,99.99
2018-02-25T20:09:12.116Z,99.99
2018-02-25T20:19:12.495Z,99.99
2018-02-25T20:29:12.121Z,99.99
2018-02-25T20:39:12.185Z,99.99
2018-02-25T20:49:12.125Z,99.99
2018-02-25T20:59:12.231Z,99.99
2018-02-25T21:09:12.148Z,99.99
2018-02-25T21:19:12.484Z,99.99
2018-02-25T21:29:12.278Z,99.99
2018-02-25T21:39:12.302Z,99.99
2018-02-25T21:49:12.255Z,99.99
2018-02-25T21:59:12.274Z,99.99
2018-02-25T22:09:12.243Z,99.99
2018-02-25T22:19:12.292Z,99.99
2018-02-25T22:29:12.221Z,99.99
2018-02-25T22:39:12.851Z,99.99
2018-02-25T22:49:12.296Z,99.99
2018-02-25T22:59:12.224Z,99.99
2018-02-25T23:09:12.285Z,99.99
2018-02-25T23:19:12.228Z,99.99
2018-02-25T23:29:12.315Z,99.99
2018-02-25T23:39:12.300Z,99.99
2018-02-25T23:49:12.316Z,99.99
2018-02-25T23:59:12.292Z,99.99
